Time;durP1;ratioP1;P1;durP2;ratioP2;P2;SDS_P1;SDS_P2;PMS_P1;PMS_P2;Temp;Humidity;BMP_temperature;BMP_pressure;BME280_temperature;BME280_humidity;BME280_pressure;Samples;Min_cycle;Max_cycle;Signal;HPM_P1;HPM_P2
2024/04/13 00:19:28;;;;;;;9.60;2.50;;;;;;;12.32;100.00;100979.41;4725904;30;20047;-93
2024/04/13 00:22:29;;;;;;;7.68;2.47;;;;;;;12.36;100.00;100982.63;4720944;30;20132;-94
2024/04/13 00:33:47;;;;;;;6.68;2.95;;;;;;;12.27;100.00;100963.09;4733505;30;20055;-95
2024/04/13 00:37:15;;;;;;;8.77;3.20;;;;;;;12.25;100.00;100968.53;4733997;30;20052;-94
2024/04/13 00:51:44;;;;;;;6.93;2.85;;;;;;;12.13;100.00;100945.81;4747907;30;20047;-91
2024/04/13 00:55:10;;;;;;;5.45;3.10;;;;;;;12.15;100.00;100957.13;4740799;30;20494;-91
2024/04/13 00:58:48;;;;;;;;;;;;;;;;;;;;;
2024/04/13 01:05:40;;;;;;;5.97;2.92;;;;;;;12.02;100.00;100930.88;4742995;30;20060;-94
2024/04/13 01:08:36;;;;;;;5.82;3.60;;;;;;;12.04;100.00;100935.06;4735041;30;20049;-93
2024/04/13 01:12:00;;;;;;;6.30;3.75;;;;;;;12.02;100.00;100920.28;4722313;30;20052;-94
2024/04/13 01:15:29;;;;;;;;;;;;;;;;;;;;;
2024/04/13 01:18:32;;;;;;;5.25;3.30;;;;;;;12.00;100.00;100922.25;4717794;30;20053;-91
2024/04/13 01:21:34;;;;;;;7.05;3.28;;;;;;;11.97;100.00;100915.41;4712435;30;20037;-91
2024/04/13 01:24:50;;;;;;;6.95;2.63;;;;;;;11.97;100.00;100906.63;4707756;30;20048;-93
2024/04/13 01:27:56;;;;;;;5.88;3.55;;;;;;;11.92;100.00;100896.47;4703524;30;20037;-93
2024/04/13 01:30:39;;;;;;;7.10;2.90;;;;;;;11.95;100.00;100890.88;4680176;30;20056;-95
2024/04/13 01:33:10;;;;;;;8.77;3.10;;;;;;;11.99;100.00;100907.31;4689721;30;20058;-93
2024/04/13 01:36:29;;;;;;;7.43;3.08;;;;;;;11.98;100.00;100889.75;4696959;30;20142;-91
2024/04/13 01:39:16;;;;;;;8.23;2.90;;;;;;;11.94;100.00;100883.91;4691113;30;20060;-90
2024/04/13 01:45:19;;;;;;;5.53;2.97;;;;;;;11.96;100.00;100883.78;4686915;30;20139;-93
2024/04/13 01:48:35;;;;;;;6.15;3.00;;;;;;;12.00;100.00;100888.66;4701878;30;20063;-92
2024/04/13 01:51:10;;;;;;;3.75;2.40;;;;;;;11.98;100.00;100881.78;4623455;30;20053;-88
2024/04/13 01:54:00;;;;;;;5.45;2.85;;;;;;;12.00;100.00;100875.41;4698542;30;20338;-93
2024/04/13 02:00:37;;;;;;;5.97;2.80;;;;;;;11.97;100.00;100862.44;4707326;30;20047;-94
2024/04/13 02:04:00;;;;;;;4.68;2.95;;;;;;;12.00;100.00;100862.16;4713072;30;20057;-91
2024/04/13 02:06:36;;;;;;;6.13;3.03;;;;;;;12.00;100.00;100856.84;4651446;30;20048;-93
2024/04/13 02:09:33;;;;;;;5.28;2.80;;;;;;;12.02;100.00;100844.28;4689313;30;20044;-92
2024/04/13 02:12:12;;;;;;;7.85;3.33;;;;;;;12.00;100.00;100846.25;4700117;30;20058;-95
2024/04/13 02:18:30;;;;;;;5.13;3.15;;;;;;;12.06;100.00;100852.78;4736927;30;20047;-93
2024/04/13 02:21:10;;;;;;;9.63;2.90;;;;;;;12.07;100.00;100848.31;4741024;30;20048;-96
2024/04/13 02:24:52;;;;;;;5.13;2.55;;;;;;;12.06;100.00;100851.94;4744039;30;20052;-94
2024/04/13 02:27:49;;;;;;;4.63;2.58;;;;;;;11.96;100.00;100855.44;4756877;30;20040;-92
2024/04/13 02:30:21;;;;;;;5.53;3.03;;;;;;;12.02;100.00;100860.16;4741264;30;20110;-93
2024/04/13 02:37:47;;;;;;;5.10;3.33;;;;;;;12.10;100.00;100848.06;4748653;30;20095;-92
2024/04/13 02:40:55;;;;;;;5.65;3.03;;;;;;;12.07;100.00;100846.50;4731067;30;20055;-93
2024/04/13 02:43:48;;;;;;;6.45;2.80;;;;;;;12.04;100.00;100836.19;4721593;30;20044;-94
2024/04/13 02:46:32;;;;;;;4.70;2.92;;;;;;;11.99;100.00;100839.25;4728290;30;20130;-94
2024/04/13 02:49:38;;;;;;;5.60;3.00;;;;;;;11.96;100.00;100823.66;4730642;30;20127;-94
2024/04/13 02:55:32;;;;;;;4.72;2.30;;;;;;;11.90;100.00;100806.53;4759083;30;20089;-90
2024/04/13 02:58:11;;;;;;;5.10;2.42;;;;;;;11.85;100.00;100792.06;4728241;30;20044;-90
2024/04/13 03:01:27;;;;;;;7.50;2.85;;;;;;;11.85;100.00;100792.06;4740391;30;20071;-92
2024/04/13 03:05:05;;;;;;;3.50;2.05;;;;;;;11.79;100.00;100794.31;4720196;30;20072;-93
2024/04/13 03:07:34;;;;;;;6.93;2.22;;;;;;;11.83;100.00;100794.03;4728906;30;20127;-92
2024/04/13 03:13:57;;;;;;;4.35;2.03;;;;;;;11.88;100.00;100783.84;4740681;30;20472;-92
2024/04/13 03:20:21;;;;;;;3.88;1.67;;;;;;;11.89;100.00;100782.84;4752193;30;20044;-92
2024/04/13 03:24:11;;;;;;;4.35;1.48;;;;;;;11.89;100.00;100782.84;4751445;30;20101;-94
2024/04/13 03:27:03;;;;;;;5.15;1.58;;;;;;;11.87;100.00;100776.84;4753547;30;20044;-94
2024/04/13 03:29:31;;;;;;;2.60;1.35;;;;;;;11.86;100.00;100767.25;4735709;30;20037;-92
2024/04/13 03:32:16;;;;;;;3.88;1.67;;;;;;;11.88;100.00;100779.34;4721674;30;20063;-94
2024/04/13 03:34:51;;;;;;;4.18;1.27;;;;;;;11.83;100.00;100780.78;4741924;30;20051;-94
2024/04/13 03:37:44;;;;;;;2.60;1.55;;;;;;;11.79;100.00;100770.47;4712976;30;20107;-94
2024/04/13 03:40:14;;;;;;;2.95;1.30;;;;;;;11.79;100.00;100770.47;4685548;30;20049;-93
2024/04/13 03:43:06;;;;;;;6.63;1.65;;;;;;;11.79;100.00;100756.38;4716750;30;20124;-92
2024/04/13 03:50:14;;;;;;;2.33;1.10;;;;;;;11.78;100.00;100747.59;4681114;30;20144;-95
2024/04/13 03:53:16;;;;;;;2.70;1.25;;;;;;;11.75;100.00;100755.81;4658537;30;20042;-93
2024/04/13 03:55:50;;;;;;;1.60;1.02;;;;;;;11.79;100.00;100753.75;4673814;30;20352;-93
2024/04/13 03:58:47;;;;;;;3.33;1.38;;;;;;;11.73;100.00;100744.56;4672986;30;20163;-93
2024/04/13 04:01:34;;;;;;;4.78;1.08;;;;;;;11.73;100.00;100754.31;4667404;30;20139;-94
2024/04/13 04:05:03;;;;;;;1.02;0.93;;;;;;;11.68;100.00;100745.97;4665555;30;20038;-94
2024/04/13 04:08:04;;;;;;;2.13;1.10;;;;;;;11.72;100.00;100744.72;4656809;30;20090;-93
2024/04/13 04:10:41;;;;;;;2.72;1.10;;;;;;;11.67;100.00;100734.56;4716066;30;20052;-94
2024/04/13 04:17:29;;;;;;;1.90;0.85;;;;;;;11.71;100.00;100746.50;4668437;30;20050;-96
2024/04/13 04:24:02;;;;;;;1.02;0.90;;;;;;;11.71;100.00;100749.16;4693536;30;20228;-95
2024/04/13 04:26:51;;;;;;;2.83;1.00;;;;;;;11.73;100.00;100743.72;4714357;30;20037;-93
2024/04/13 04:29:40;;;;;;;2.50;1.00;;;;;;;11.71;100.00;100751.81;4687206;30;20037;-92
2024/04/13 04:32:25;;;;;;;3.03;1.10;;;;;;;11.70;100.00;100755.44;4700553;30;20045;-94
2024/04/13 04:35:45;;;;;;;2.92;0.80;;;;;;;11.75;100.00;100755.81;4686848;30;20049;-95
2024/04/13 04:39:02;;;;;;;1.65;0.90;;;;;;;11.72;100.00;100745.53;4695777;30;20614;-91
2024/04/13 04:51:11;;;;;;;3.17;0.68;;;;;;;11.81;100.00;100745.66;4719396;30;20083;-94
2024/04/13 04:54:04;;;;;;;0.80;0.60;;;;;;;11.77;100.00;100743.28;4693734;30;20054;-92
2024/04/13 05:01:56;;;;;;;1.77;0.50;;;;;;;11.82;100.00;100737.56;4684338;30;20151;-95
2024/04/13 05:05:12;;;;;;;2.60;0.70;;;;;;;11.81;100.00;100732.41;4667278;30;20057;-94
2024/04/13 05:11:24;;;;;;;1.08;0.70;;;;;;;11.85;100.00;100731.16;4617077;30;20090;-91
2024/04/13 05:14:41;;;;;;;2.00;0.55;;;;;;;11.80;100.00;100728.94;4616275;31;20074;-91
2024/04/13 05:18:16;;;;;;;3.90;0.60;;;;;;;11.82;100.00;100729.63;4574097;31;20413;-94
2024/04/13 05:23:58;;;;;;;1.45;0.70;;;;;;;11.73;100.00;100725.19;4611068;30;20047;-91
2024/04/13 05:28:11;;;;;;;3.35;0.50;;;;;;;11.75;100.00;100715.28;4658429;30;20055;-93
2024/04/13 05:31:21;;;;;;;1.13;0.82;;;;;;;11.64;100.00;100706.53;4734241;30;20085;-94
2024/04/13 05:34:01;;;;;;;0.73;0.40;;;;;;;11.68;100.00;100706.25;4693730;30;20048;-93
2024/04/13 05:36:57;;;;;;;;;;;;;;;;;;;;;
2024/04/13 05:40:13;;;;;;;2.78;0.80;;;;;;;11.59;100.00;100710.59;4714483;30;20040;-94
2024/04/13 05:42:45;;;;;;;1.42;0.80;;;;;;;11.56;100.00;100710.91;4691099;30;20088;-93
2024/04/13 05:45:21;;;;;;;3.03;0.73;;;;;;;11.52;100.00;100705.91;4708526;30;20530;-89
2024/04/13 05:48:51;;;;;;;2.05;0.70;;;;;;;11.55;100.00;100696.81;4689993;30;20084;-93
2024/04/13 05:51:48;;;;;;;2.00;0.50;;;;;;;11.59;100.00;100705.31;4689222;30;20125;-92
2024/04/13 05:55:12;;;;;;;2.15;0.60;;;;;;;11.56;100.00;100687.91;4723343;30;20044;-93
2024/04/13 05:58:44;;;;;;;4.60;0.70;;;;;;;11.58;100.00;100695.72;4767508;30;20534;-93
2024/04/13 06:02:20;;;;;;;3.50;0.60;;;;;;;11.63;100.00;100694.28;4746346;30;20047;-94
2024/04/13 06:09:13;;;;;;;2.85;0.73;;;;;;;11.66;100.00;100693.16;4754946;30;20051;-94
2024/04/13 06:15:57;;;;;;;2.55;0.60;;;;;;;11.70;100.00;100694.56;4752825;30;20134;-95
2024/04/13 06:18:48;;;;;;;1.83;0.65;;;;;;;11.74;100.00;100697.72;4732139;30;20036;-93
2024/04/13 06:26:15;;;;;;;;;;;;;;;;;;;;;
2024/04/13 06:29:37;;;;;;;4.75;0.90;;;;;;;11.80;100.00;100702.47;4743736;30;20085;-94
2024/04/13 06:32:29;;;;;;;6.05;1.10;;;;;;;11.85;100.00;100705.47;4722765;30;20052;-94
2024/04/13 06:39:34;;;;;;;1.17;0.60;;;;;;;11.89;100.00;100688.34;4730427;30;20051;-95
2024/04/13 06:45:20;;;;;;;1.15;0.50;;;;;;;11.93;100.00;100672.97;4699922;30;20059;-94
2024/04/13 06:47:46;;;;;;;1.25;0.40;;;;;;;11.96;100.00;100655.97;4696584;30;20056;-92
2024/04/13 06:50:33;;;;;;;1.42;0.52;;;;;;;12.15;100.00;100663.81;4745093;30;20053;-90
2024/04/13 06:56:24;;;;;;;2.28;0.40;;;;;;;12.18;100.00;100660.03;4706171;30;20121;-94
2024/04/13 06:59:19;;;;;;;2.10;0.63;;;;;;;12.14;100.00;100648.91;4725717;30;20036;-89
2024/04/13 07:02:12;;;;;;;1.92;0.35;;;;;;;12.22;100.00;100656.09;4735305;30;20070;-91
2024/04/13 07:04:45;;;;;;;1.10;0.30;;;;;;;12.25;100.00;100645.19;4723526;30;20044;-90
2024/04/13 07:07:29;;;;;;;1.73;0.43;;;;;;;12.29;100.00;100629.84;4747273;30;20099;-92
2024/04/13 07:10:23;;;;;;;1.50;0.40;;;;;;;12.31;100.00;100642.94;4740165;30;20043;-91
2024/04/13 07:13:13;;;;;;;1.48;0.30;;;;;;;12.36;100.00;100638.03;4745987;30;20465;-92
2024/04/13 07:15:39;;;;;;;1.70;0.40;;;;;;;12.36;100.00;100640.66;4739189;30;20267;-89
2024/04/13 07:18:22;;;;;;;0.55;0.20;;;;;;;12.40;100.00;100642.03;4722210;30;20048;-91
2024/04/13 07:21:23;;;;;;;1.42;0.30;;;;;;;12.45;100.00;100644.22;4735521;30;20133;-93
2024/04/13 07:28:21;;;;;;;0.40;0.20;;;;;;;12.71;100.00;100638.16;4733473;30;20055;-92
2024/04/13 07:31:38;;;;;;;1.73;0.38;;;;;;;12.89;100.00;100638.09;4739785;30;20044;-94
2024/04/13 07:34:48;;;;;;;0.93;0.20;;;;;;;13.17;100.00;100640.59;4707484;30;20086;-94
2024/04/13 07:37:25;;;;;;;0.80;0.40;;;;;;;13.33;100.00;100623.13;4727259;30;20041;-89
2024/04/13 07:40:53;;;;;;;2.28;0.38;;;;;;;13.33;100.00;100629.25;4706106;30;20112;-92
2024/04/13 07:44:19;;;;;;;0.68;0.35;;;;;;;13.38;100.00;100636.72;4716405;30;20040;-92
2024/04/13 07:47:11;;;;;;;0.95;0.40;;;;;;;13.50;100.00;100632.88;4723307;30;20128;-93
2024/04/13 07:49:41;;;;;;;0.52;0.20;;;;;;;13.50;100.00;100618.72;4720283;30;20561;-89
2024/04/13 07:52:10;;;;;;;1.38;0.30;;;;;;;13.42;100.00;100616.84;4735547;30;20280;-92
2024/04/13 07:54:40;;;;;;;1.20;0.30;;;;;;;13.54;100.00;100621.91;4734168;30;20040;-92
2024/04/13 07:57:35;;;;;;;1.55;0.20;;;;;;;13.51;100.00;100607.97;4751194;30;20052;-95
2024/04/13 08:00:29;;;;;;;1.23;0.30;;;;;;;13.51;100.00;100605.31;4732513;30;20056;-94
2024/04/13 08:03:23;;;;;;;1.33;0.30;;;;;;;13.50;100.00;100608.97;4725312;30;20036;-94
2024/04/13 08:10:00;;;;;;;1.00;0.20;;;;;;;13.40;100.00;100618.81;4710032;30;20104;-91
2024/04/13 08:13:07;;;;;;;1.20;0.30;;;;;;;13.49;100.00;100611.75;4734611;30;20048;-92
2024/04/13 08:15:45;;;;;;;2.67;0.32;;;;;;;13.54;100.00;100612.13;4720455;30;20076;-90
2024/04/13 08:18:15;;;;;;;0.30;0.20;;;;;;;13.52;100.00;100614.94;4753752;30;20040;-94
2024/04/13 08:20:43;;;;;;;0.47;0.13;;;;;;;13.45;100.00;100611.22;4730471;30;20055;-92
2024/04/13 08:23:27;;;;;;;2.20;0.30;;;;;;;13.49;100.00;100611.75;4719517;30;20053;-89
2024/04/13 08:29:17;;;;;;;0.95;0.28;;;;;;;13.50;100.00;100594.81;4739142;30;20032;-93
2024/04/13 08:32:15;;;;;;;1.65;0.30;;;;;;;13.55;100.00;100594.38;4765854;30;20495;-93
2024/04/13 08:34:45;;;;;;;2.25;0.20;;;;;;;13.57;100.00;100598.50;4713478;30;20044;-94
2024/04/13 08:37:12;;;;;;;1.20;0.10;;;;;;;13.51;100.00;100592.03;4726762;30;20093;-91
2024/04/13 08:40:10;;;;;;;1.55;0.98;;;;;;;13.55;100.00;100589.06;4746669;30;20659;-93
2024/04/13 08:46:03;;;;;;;0.98;0.20;;;;;;;13.55;100.00;100605.00;4738780;30;20049;-92
2024/04/13 08:48:38;;;;;;;3.60;0.22;;;;;;;13.62;100.00;100598.03;4725640;30;20135;-93
2024/04/13 08:51:21;;;;;;;2.05;0.50;;;;;;;13.77;100.00;100590.28;4732600;30;20051;-93
2024/04/13 08:53:54;;;;;;;1.35;0.40;;;;;;;13.71;100.00;100586.44;4727723;30;20056;-90
2024/04/13 08:56:27;;;;;;;2.53;0.35;;;;;;;13.73;100.00;100568.53;4735705;30;20046;-91
2024/04/13 08:59:00;;;;;;;2.20;0.85;;;;;;;13.92;100.00;100582.50;4737293;30;20829;-92
2024/04/13 09:01:31;;;;;;;3.33;0.50;;;;;;;14.03;100.00;100570.72;4742088;30;20044;-95
2024/04/13 09:04:35;;;;;;;4.68;0.70;;;;;;;14.16;100.00;100543.66;4710961;30;20063;-93
2024/04/13 09:07:13;;;;;;;0.63;0.20;;;;;;;14.22;100.00;100564.25;4711926;30;20055;-94
2024/04/13 09:10:13;;;;;;;2.60;0.63;;;;;;;14.29;100.00;100559.13;4722667;30;20036;-91
2024/04/13 09:12:54;;;;;;;3.88;0.55;;;;;;;14.09;100.00;100545.34;4725318;30;20524;-92
2024/04/13 09:18:08;;;;;;;7.25;0.60;;;;;;;14.20;100.00;100544.16;4740551;30;20048;-90
2024/04/13 09:20:45;;;;;;;4.18;0.60;;;;;;;14.28;100.00;100544.19;4725254;30;20040;-91
2024/04/13 09:23:29;;;;;;;2.15;0.60;;;;;;;14.43;100.00;100548.84;4726682;30;20040;-93
2024/04/13 09:26:05;;;;;;;4.50;0.57;;;;;;;14.49;100.00;100542.84;4721067;30;20047;-92
2024/04/13 09:29:21;;;;;;;3.05;0.45;;;;;;;14.56;100.00;100548.28;4733753;30;20068;-92
2024/04/13 09:31:54;;;;;;;5.75;1.15;;;;;;;14.52;100.00;100529.22;4745192;30;20059;-93
2024/04/13 09:34:27;;;;;;;2.97;0.70;;;;;;;14.54;100.00;100531.69;4743318;30;20056;-92
2024/04/13 09:37:26;;;;;;;4.95;0.70;;;;;;;14.55;100.00;100541.31;4733193;30;20148;-93
2024/04/13 09:40:16;;;;;;;5.30;0.70;;;;;;;14.62;100.00;100540.47;4718276;30;20207;-92
2024/04/13 09:42:48;;;;;;;5.65;0.80;;;;;;;14.63;100.00;100544.81;4735014;30;20077;-92
2024/04/13 09:45:43;;;;;;;3.95;0.60;;;;;;;14.63;100.00;100536.00;4741948;30;20433;-93
2024/04/13 09:48:19;;;;;;;6.88;0.88;;;;;;;14.73;100.00;100535.81;4751834;30;20056;-89
2024/04/13 09:51:00;;;;;;;2.33;0.40;;;;;;;14.90;100.00;100547.28;4735894;30;20150;-94
2024/04/13 09:54:53;;;;;;;3.70;0.40;;;;;;;14.90;100.00;100549.94;4743896;30;20044;-94
2024/04/13 09:57:59;;;;;;;4.82;0.70;;;;;;;14.90;100.00;100538.47;4737877;30;20048;-91
2024/04/13 10:00:31;;;;;;;4.05;0.60;;;;;;;14.99;100.00;100534.78;4720407;30;20585;-91
2024/04/13 10:03:13;;;;;;;5.47;0.68;;;;;;;14.84;100.00;100538.13;4732808;30;20102;-92
2024/04/13 10:06:15;;;;;;;5.97;0.90;;;;;;;14.66;100.00;100530.34;4753321;30;20127;-93
2024/04/13 10:08:45;;;;;;;5.05;0.93;;;;;;;14.64;100.00;100525.19;4723404;30;20181;-89
2024/04/13 10:11:22;;;;;;;9.05;1.23;;;;;;;14.70;100.00;100520.19;4719820;30;20094;-92
2024/04/13 10:14:22;;;;;;;;;;;;;;;;;;;;;
2024/04/13 10:17:20;;;;;;;6.80;1.00;;;;;;;14.38;100.00;100549.34;4742920;30;20055;-93
2024/04/13 10:30:03;;;;;;;;;;;;;;;;;;;;;
2024/04/13 10:34:15;;;;;;;;;;;;;;;;;;;;;
2024/04/13 10:46:59;;;;;;;6.53;1.27;;;;;;;13.44;100.00;100620.16;4676390;30;20137;-93
2024/04/13 11:12:03;;;;;;;5.43;1.15;;;;;;;12.62;100.00;100647.84;4590864;30;20046;-93
2024/04/13 11:15:39;;;;;;;3.45;0.63;;;;;;;12.64;100.00;100659.97;4606149;30;20078;-91
2024/04/13 11:18:09;;;;;;;9.38;2.25;;;;;;;12.65;100.00;100666.09;4662264;30;20060;-93
2024/04/13 11:20:57;;;;;;;7.70;1.00;;;;;;;12.60;100.00;100668.34;4699607;30;20049;-94
2024/04/13 11:23:52;;;;;;;6.22;0.80;;;;;;;12.35;100.00;100654.88;4699877;30;20060;-91
2024/04/13 11:26:33;;;;;;;3.90;0.88;;;;;;;12.35;100.00;100649.59;4704772;30;20064;-90
2024/04/13 11:29:08;;;;;;;6.95;0.85;;;;;;;12.48;100.00;100655.34;4696228;30;20412;-91
2024/04/13 11:31:37;;;;;;;10.32;1.23;;;;;;;12.59;100.00;100645.50;4693950;30;20500;-93
2024/04/13 11:34:08;;;;;;;10.50;1.48;;;;;;;12.80;100.00;100625.75;4677338;30;20053;-92
2024/04/13 11:37:19;;;;;;;7.55;1.17;;;;;;;12.95;100.00;100629.53;4713168;30;20045;-93
2024/04/13 11:40:12;;;;;;;6.90;1.23;;;;;;;13.08;100.00;100626.47;4737969;30;20043;-90
2024/04/13 11:42:47;;;;;;;6.45;0.88;;;;;;;13.22;100.00;100626.88;4727871;30;20311;-91
2024/04/13 11:45:43;;;;;;;7.38;0.95;;;;;;;13.54;100.00;100625.38;4718175;30;20090;-91
2024/04/13 11:48:29;;;;;;;4.32;0.73;;;;;;;13.43;100.00;100641.56;4745926;30;20063;-91
2024/04/13 11:51:27;;;;;;;5.30;0.83;;;;;;;13.06;100.00;100665.56;4741440;30;20052;-92
2024/04/13 11:53:57;;;;;;;3.83;0.40;;;;;;;12.74;100.00;100677.63;4736143;30;20060;-90
2024/04/13 11:56:25;;;;;;;8.63;1.40;;;;;;;12.55;100.00;100681.25;4721557;30;20040;-94
2024/04/13 11:58:56;;;;;;;7.68;0.90;;;;;;;12.40;100.00;100682.63;4721189;30;20133;-92
2024/04/13 12:01:34;;;;;;;8.07;1.17;;;;;;;12.47;100.00;100693.44;4741259;30;20422;-92
2024/04/13 12:04:09;;;;;;;9.43;2.77;;;;;;;12.55;100.00;100690.03;4734980;30;20048;-94
2024/04/13 12:06:40;;;;;;;6.82;2.50;;;;;;;12.59;100.00;100693.22;4732226;30;20108;-93
2024/04/13 12:09:13;;;;;;;7.18;1.52;;;;;;;12.50;100.00;100676.41;4733629;30;20376;-90
2024/04/13 12:11:47;;;;;;;9.43;1.77;;;;;;;12.56;100.00;100682.91;4750384;30;20055;-89
2024/04/13 12:14:14;;;;;;;6.57;1.58;;;;;;;12.63;100.00;100674.19;4728996;30;20763;-91
2024/04/13 12:16:48;;;;;;;5.45;1.20;;;;;;;12.67;100.00;100666.78;4759123;30;20125;-92
2024/04/13 12:19:26;;;;;;;8.95;1.38;;;;;;;12.77;100.00;100691.38;4717160;30;20579;-92
2024/04/13 12:22:02;;;;;;;8.05;1.80;;;;;;;12.69;100.00;100679.88;4728450;30;20131;-94
2024/04/13 12:24:30;;;;;;;10.95;1.45;;;;;;;12.81;100.00;100681.31;4748920;30;20491;-91
2024/04/13 12:27:09;;;;;;;9.45;1.67;;;;;;;13.10;100.00;100661.63;4719424;30;20052;-88
2024/04/13 12:29:47;;;;;;;10.85;1.33;;;;;;;13.29;100.00;100691.63;4733438;30;20036;-95
2024/04/13 12:32:14;;;;;;;9.82;1.52;;;;;;;13.32;100.00;100690.47;4735084;30;20044;-91
2024/04/13 12:34:55;;;;;;;8.65;1.30;;;;;;;13.39;100.00;100694.97;4726158;30;20123;-90
2024/04/13 12:38:12;;;;;;;5.80;1.42;;;;;;;13.23;100.00;100681.63;4717892;30;20608;-94
2024/04/13 12:40:48;;;;;;;7.82;1.90;;;;;;;13.20;100.00;100688.09;4719143;30;20061;-90
2024/04/13 12:43:47;;;;;;;8.75;1.20;;;;;;;13.36;100.00;100681.22;4748372;30;20044;-92
2024/04/13 12:46:19;;;;;;;9.55;1.73;;;;;;;13.56;100.00;100695.13;4734997;30;20044;-93
2024/04/13 12:49:16;;;;;;;10.73;2.25;;;;;;;13.61;100.00;100694.66;4732738;30;20556;-94
2024/04/13 12:51:55;;;;;;;15.27;2.00;;;;;;;13.67;100.00;100701.97;4747638;30;20041;-94
2024/04/13 12:54:28;;;;;;;9.73;1.50;;;;;;;13.76;100.00;100708.19;4722839;30;20048;-90
2024/04/13 12:56:59;;;;;;;10.90;2.08;;;;;;;13.88;100.00;100706.91;4731085;30;20045;-94
2024/04/13 13:00:07;;;;;;;6.93;1.40;;;;;;;14.01;100.00;100700.31;4719420;30;20483;-93
2024/04/13 13:02:46;;;;;;;;;;;;;;;13.96;100.00;100706.09;4734754;30;20044;-91
2024/04/13 13:05:15;;;;;;;7.50;1.33;;;;;;;14.07;100.00;100715.59;4737507;30;19918;-88
2024/04/13 13:07:53;;;;;;;10.70;1.77;;;;;;;14.16;100.00;100715.63;4732675;30;20040;-90
2024/04/13 13:10:49;;;;;;;9.05;1.65;;;;;;;14.02;100.00;100718.75;4724015;30;20483;-92
2024/04/13 13:13:19;;;;;;;10.23;1.77;;;;;;;13.87;96.68;100710.53;4736776;30;20109;-92
2024/04/13 13:16:09;;;;;;;5.43;1.27;;;;;;;13.87;97.03;100707.88;4730794;30;20097;-91
2024/04/13 13:18:42;;;;;;;6.85;1.25;;;;;;;14.04;94.90;100707.09;4720437;30;20040;-93
2024/04/13 13:21:28;;;;;;;7.13;1.00;;;;;;;14.04;91.48;100723.91;4743846;30;20040;-92
2024/04/13 13:24:17;;;;;;;11.13;1.58;;;;;;;14.01;86.04;100714.41;4731424;30;20044;-92
2024/04/13 13:26:43;;;;;;;8.32;1.30;;;;;;;14.10;92.43;100712.63;4753782;30;20127;-88
2024/04/13 13:29:12;;;;;;;9.15;1.70;;;;;;;14.08;91.11;100735.06;4732650;30;20067;-95
2024/04/13 13:31:45;;;;;;;9.75;1.70;;;;;;;13.97;91.13;100736.16;4744610;30;20048;-91
2024/04/13 13:34:24;;;;;;;11.82;2.33;;;;;;;13.72;86.94;100744.84;4727296;30;20078;-92
2024/04/13 13:37:56;;;;;;;6.40;1.38;;;;;;;13.27;80.31;100749.31;4727661;30;20056;-93
2024/04/13 13:40:25;;;;;;;11.52;1.92;;;;;;;12.88;91.78;100761.94;4743704;30;20427;-89
2024/04/13 13:42:52;;;;;;;10.70;1.48;;;;;;;12.77;95.95;100783.41;4733996;30;20056;-88
2024/04/13 13:46:02;;;;;;;8.98;1.83;;;;;;;12.68;98.63;100752.50;4741682;30;20107;-94
2024/04/13 13:48:58;;;;;;;7.20;1.35;;;;;;;12.85;95.90;100746.34;4747906;30;20528;-89
2024/04/13 13:51:48;;;;;;;5.03;1.23;;;;;;;12.92;81.61;100759.81;4729729;30;20525;-91
2024/04/13 13:54:43;;;;;;;10.98;1.67;;;;;;;12.75;84.37;100765.00;4745991;30;20047;-91
2024/04/13 13:57:12;;;;;;;7.85;1.30;;;;;;;12.59;82.80;100749.75;4736984;30;20044;-91
2024/04/13 13:59:44;;;;;;;4.63;1.38;;;;;;;12.70;79.73;100767.25;4705604;30;20503;-93
2024/04/13 14:02:22;;;;;;;8.48;1.25;;;;;;;12.93;75.92;100764.16;4717045;30;20051;-92
2024/04/13 14:04:54;;;;;;;7.28;1.65;;;;;;;13.01;71.56;100760.75;4714123;30;20051;-91
2024/04/13 14:07:58;;;;;;;7.90;1.00;;;;;;;13.12;75.14;100778.25;4716629;30;20076;-93
2024/04/13 14:10:32;;;;;;;5.82;1.20;;;;;;;13.14;73.92;100766.50;4732515;30;20048;-92
2024/04/13 14:13:26;;;;;;;6.90;1.25;;;;;;;13.33;71.14;100766.47;4712326;30;20539;-93
2024/04/13 14:15:57;;;;;;;13.95;1.60;;;;;;;13.52;73.62;100757.53;4731681;30;20564;-92
2024/04/13 14:18:26;;;;;;;14.77;1.50;;;;;;;13.69;73.15;100760.25;4730013;30;20305;-90
2024/04/13 14:20:57;;;;;;;8.38;1.27;;;;;;;13.87;71.90;100765.50;4738557;30;20046;-92
2024/04/13 14:23:38;;;;;;;6.35;1.02;;;;;;;13.76;66.42;100763.97;4714391;30;20047;-88
2024/04/13 14:26:22;;;;;;;6.25;1.40;;;;;;;13.79;66.97;100753.03;4731733;30;20499;-94
2024/04/13 14:29:18;;;;;;;5.75;1.38;;;;;;;13.82;67.62;100770.47;4730054;30;20040;-92
2024/04/13 14:36:59;;;;;;;13.93;1.58;;;;;;;13.49;70.63;100774.53;4715970;30;20395;-93
2024/04/13 14:43:07;;;;;;;6.80;1.20;;;;;;;13.18;75.41;100801.53;4724991;30;20177;-90
2024/04/13 14:45:34;;;;;;;4.75;1.20;;;;;;;13.14;75.07;100803.66;4721773;30;20059;-93
2024/04/13 14:48:01;;;;;;;8.95;0.98;;;;;;;13.22;73.83;100799.41;4730738;30;20079;-90
2024/04/13 14:50:30;;;;;;;4.03;1.20;;;;;;;13.26;73.92;100816.69;4716422;30;20095;-91
2024/04/13 14:53:07;;;;;;;6.38;1.23;;;;;;;13.24;73.89;100797.41;4741627;30;20110;-91
2024/04/13 14:55:58;;;;;;;5.60;1.08;;;;;;;13.29;73.02;100811.06;4731386;30;20040;-95
2024/04/13 14:58:32;;;;;;;6.05;1.67;;;;;;;13.43;73.69;100798.22;4732061;30;20067;-90
2024/04/13 15:01:07;;;;;;;3.70;0.60;;;;;;;13.53;71.60;100812.28;4715136;30;20040;-91
2024/04/13 15:03:40;;;;;;;4.22;0.70;;;;;;;13.57;68.42;100812.81;4729326;30;20450;-92
2024/04/13 15:06:24;;;;;;;7.13;1.08;;;;;;;13.57;67.47;100820.78;4731073;30;20043;-92
2024/04/13 15:09:01;;;;;;;4.82;1.20;;;;;;;13.64;67.44;100800.56;4710561;30;20132;-88
2024/04/13 15:11:39;;;;;;;4.22;0.80;;;;;;;13.72;66.41;100800.63;4734274;30;20048;-92
2024/04/13 15:31:31;;;;;;;4.70;0.85;;;;;;;13.28;59.46;100831.47;4681509;30;20100;-91
2024/04/13 16:22:24;;;;;;;7.45;1.30;;;;;;;12.58;70.44;100866.56;4576074;31;20044;-92
2024/04/13 16:25:06;;;;;;;5.88;1.15;;;;;;;12.68;72.41;100870.00;4547969;31;20081;-90
2024/04/13 16:27:46;;;;;;;9.32;0.75;;;;;;;12.66;75.88;100874.63;4591748;30;20185;-96
2024/04/13 16:30:18;;;;;;;11.10;1.40;;;;;;;12.50;77.30;100865.47;4613766;30;20130;-93
2024/04/13 16:33:11;;;;;;;5.53;0.93;;;;;;;12.48;76.84;100859.50;4655430;30;20054;-91
2024/04/13 16:35:43;;;;;;;7.20;1.33;;;;;;;12.54;76.04;100884.59;4685432;30;20048;-90
2024/04/13 16:38:19;;;;;;;9.00;1.17;;;;;;;12.48;74.38;100880.72;4699368;30;20713;-91
2024/04/13 16:40:49;;;;;;;3.75;0.60;;;;;;;12.30;74.21;100879.78;4696708;30;20038;-90
2024/04/13 16:43:15;;;;;;;7.22;1.08;;;;;;;12.21;74.95;100890.28;4673045;30;20060;-92
2024/04/13 16:45:46;;;;;;;7.18;0.82;;;;;;;12.08;75.99;100887.13;4690372;30;20052;-92
2024/04/13 16:48:53;;;;;;;9.13;0.90;;;;;;;11.99;77.88;100899.38;4737921;30;20492;-94
2024/04/13 16:51:53;;;;;;;7.65;1.27;;;;;;;12.01;83.78;100890.31;4720710;30;20049;-92
2024/04/13 16:55:12;;;;;;;9.10;1.50;;;;;;;12.08;87.46;100905.66;4718811;30;20087;-94
2024/04/13 16:58:07;;;;;;;8.43;0.95;;;;;;;12.12;91.14;100901.75;4707946;30;20480;-94
2024/04/13 17:01:27;;;;;;;6.88;1.20;;;;;;;12.08;85.13;100911.81;4705322;30;20560;-93
2024/04/13 17:04:09;;;;;;;;;;;;;;;11.94;81.06;100914.84;4707428;30;20044;-90
2024/04/13 17:06:43;;;;;;;4.80;0.73;;;;;;;11.92;86.34;100922.94;4724740;30;19925;-92
2024/04/13 17:09:19;;;;;;;5.80;0.90;;;;;;;11.76;84.55;100912.91;4715512;30;20041;-92
2024/04/13 17:12:03;;;;;;;9.52;1.63;;;;;;;11.87;86.52;100910.13;4683181;30;20523;-92
2024/04/13 17:15:17;;;;;;;5.97;0.90;;;;;;;11.76;89.02;100913.78;4717047;30;20065;-92
2024/04/13 17:18:04;;;;;;;4.30;1.00;;;;;;;11.69;90.65;100925.88;4723524;30;20072;-94
2024/04/13 17:23:56;;;;;;;4.25;0.93;;;;;;;11.71;89.74;100931.88;4733631;30;20044;-90
2024/04/13 17:26:25;;;;;;;5.97;1.00;;;;;;;11.64;91.63;100938.72;4719003;30;20057;-94
2024/04/13 17:28:52;;;;;;;8.52;0.98;;;;;;;11.64;92.23;100949.31;4718235;30;20135;-88
2024/04/13 17:31:44;;;;;;;9.27;0.93;;;;;;;11.53;92.51;100947.63;4723573;30;20052;-95